Time;durP1;ratioP1;P1;durP2;ratioP2;P2;SDS_P1;SDS_P2;PMS_P1;PMS_P2;Temp;Humidity;BMP_temperature;BMP_pressure;BME280_temperature;BME280_humidity;BME280_pressure;Samples;Min_cycle;Max_cycle;Signal;HPM_P1;HPM_P2
2023/05/27 00:00:42;;;;;;;10.05;4.38;;;8.10;99.90;;;;;;5055856;28;20048;-68
2023/05/27 00:03:09;;;;;;;15.48;4.38;;;8.10;99.90;;;;;;5056308;28;20064;-69
2023/05/27 00:05:36;;;;;;;15.13;5.07;;;8.10;99.90;;;;;;5074023;28;20052;-68
2023/05/27 00:08:03;;;;;;;16.77;4.53;;;8.10;99.90;;;;;;5055468;28;20060;-68
2023/05/27 00:10:30;;;;;;;14.57;4.57;;;8.00;99.90;;;;;;5056034;28;20054;-69
2023/05/27 00:12:58;;;;;;;14.95;4.60;;;8.00;99.90;;;;;;5073718;28;20052;-69
2023/05/27 00:15:26;;;;;;;18.75;4.35;;;8.10;99.90;;;;;;5055377;28;20048;-69
2023/05/27 00:17:54;;;;;;;13.13;4.30;;;8.00;99.90;;;;;;5055877;28;20463;-69
2023/05/27 00:20:22;;;;;;;16.52;4.00;;;8.00;99.90;;;;;;5055993;28;20059;-69
2023/05/27 00:22:50;;;;;;;14.27;4.53;;;8.00;99.90;;;;;;5073181;28;20484;-69
2023/05/27 00:25:20;;;;;;;13.20;4.55;;;7.90;99.90;;;;;;5073991;28;20404;-69
2023/05/27 00:27:47;;;;;;;14.95;4.95;;;8.00;99.90;;;;;;5073848;28;20044;-69
2023/05/27 00:30:16;;;;;;;12.05;4.00;;;8.00;99.90;;;;;;5073550;28;20048;-69
2023/05/27 00:32:43;;;;;;;24.95;5.35;;;8.00;99.90;;;;;;5073491;28;20478;-69
2023/05/27 00:35:11;;;;;;;22.30;4.82;;;8.00;99.90;;;;;;5055227;28;20686;-68
2023/05/27 00:37:38;;;;;;;9.57;4.00;;;8.00;99.90;;;;;;5055560;28;20056;-68
2023/05/27 00:40:08;;;;;;;19.40;4.70;;;7.90;99.90;;;;;;5055377;28;20411;-68
2023/05/27 00:42:35;;;;;;;11.63;4.03;;;7.90;99.90;;;;;;5053448;28;20488;-68
2023/05/27 00:45:03;;;;;;;13.50;4.05;;;7.90;99.90;;;;;;5055469;28;20055;-69
2023/05/27 00:47:34;;;;;;;14.25;4.75;;;7.90;99.90;;;;;;5073057;28;20063;-69
2023/05/27 00:50:01;;;;;;;19.73;5.38;;;8.00;99.90;;;;;;5072833;28;20044;-67
2023/05/27 00:52:30;;;;;;;19.45;7.30;;;7.90;99.90;;;;;;5073137;28;20052;-69
2023/05/27 00:54:58;;;;;;;19.70;6.45;;;7.90;99.90;;;;;;5073225;28;20041;-69
2023/05/27 00:57:25;;;;;;;12.38;4.32;;;7.90;99.90;;;;;;5054669;28;20051;-69
2023/05/27 00:59:53;;;;;;;17.73;4.72;;;7.90;99.90;;;;;;5054842;28;20070;-69
2023/05/27 01:02:20;;;;;;;15.55;4.03;;;7.80;99.90;;;;;;5073257;28;20041;-69
2023/05/27 01:04:48;;;;;;;14.30;4.50;;;7.80;99.90;;;;;;5054429;28;20484;-69
2023/05/27 01:07:18;;;;;;;15.65;4.80;;;7.80;99.90;;;;;;5072860;28;20044;-69
2023/05/27 01:09:52;;;;;;;8.35;3.80;;;7.90;99.90;;;;;;5072698;28;20049;-69
2023/05/27 01:12:27;;;;;;;16.92;4.32;;;7.80;99.90;;;;;;5052638;28;20048;-69
2023/05/27 01:14:57;;;;;;;16.27;5.22;;;7.80;99.90;;;;;;5071522;28;20123;-69
2023/05/27 01:17:27;;;;;;;12.27;4.85;;;7.80;99.90;;;;;;5052231;28;20053;-69
2023/05/27 01:19:57;;;;;;;11.73;4.05;;;7.70;99.90;;;;;;5054833;28;20055;-68
2023/05/27 01:22:29;;;;;;;13.70;4.22;;;7.80;99.90;;;;;;5054430;28;20138;-68
2023/05/27 01:24:56;;;;;;;13.13;4.68;;;7.70;99.90;;;;;;5053300;28;20102;-69
2023/05/27 01:27:24;;;;;;;13.48;4.65;;;7.70;99.90;;;;;;5052404;28;20052;-68
2023/05/27 01:29:52;;;;;;;19.35;5.70;;;7.60;99.90;;;;;;5054532;28;20059;-68
2023/05/27 01:32:25;;;;;;;11.05;4.50;;;7.70;99.90;;;;;;5071970;28;20040;-69
2023/05/27 01:34:59;;;;;;;15.50;4.43;;;8.40;99.90;;;;;;5054714;28;20067;-68
2023/05/27 01:37:32;;;;;;;11.43;4.18;;;7.70;99.90;;;;;;5070447;28;20045;-69
2023/05/27 01:39:59;;;;;;;13.95;4.80;;;8.70;99.90;;;;;;5051682;28;20056;-69
2023/05/27 01:42:27;;;;;;;18.33;4.20;;;7.80;99.90;;;;;;5054306;28;20048;-69
2023/05/27 01:44:56;;;;;;;16.02;4.63;;;7.90;99.90;;;;;;5072378;28;20061;-69
2023/05/27 01:47:23;;;;;;;14.55;4.72;;;8.50;99.90;;;;;;5053696;28;20060;-68
2023/05/27 01:49:50;;;;;;;15.65;5.13;;;8.40;99.90;;;;;;5054108;28;20048;-69
2023/05/27 01:52:17;;;;;;;18.27;4.93;;;8.00;99.90;;;;;;5053627;28;20447;-69
2023/05/27 01:54:45;;;;;;;17.13;4.65;;;8.00;99.90;;;;;;5054388;28;20048;-69
2023/05/27 01:57:12;;;;;;;18.52;5.72;;;8.00;99.90;;;;;;5069877;28;20060;-69
2023/05/27 01:59:39;;;;;;;15.43;4.70;;;8.60;99.90;;;;;;5053439;28;20430;-69
2023/05/27 02:02:06;;;;;;;14.35;4.68;;;7.90;99.90;;;;;;5071940;28;20048;-69
2023/05/27 02:04:33;;;;;;;18.42;4.97;;;7.90;99.90;;;;;;5054084;28;20185;-69
2023/05/27 02:07:00;;;;;;;19.90;4.60;;;7.90;99.90;;;;;;5053251;28;20052;-69
2023/05/27 02:09:27;;;;;;;14.32;4.40;;;7.90;99.90;;;;;;5071757;28;20190;-69
2023/05/27 02:11:55;;;;;;;12.18;4.32;;;7.90;99.90;;;;;;5053983;28;20053;-69
2023/05/27 02:14:22;;;;;;;14.60;4.40;;;7.80;99.90;;;;;;5050961;28;20048;-69
2023/05/27 02:16:50;;;;;;;15.63;4.63;;;8.30;99.90;;;;;;5054004;28;20052;-69
2023/05/27 02:19:17;;;;;;;15.23;4.82;;;8.30;99.90;;;;;;5053842;28;20044;-70
2023/05/27 02:21:44;;;;;;;17.25;6.53;;;8.30;99.90;;;;;;5053133;28;20158;-69
2023/05/27 02:24:11;;;;;;;21.98;9.52;;;7.70;99.90;;;;;;5054014;28;20082;-69
2023/05/27 02:26:37;;;;;;;22.90;7.88;;;7.70;99.90;;;;;;5053945;28;20036;-70
2023/05/27 02:29:06;;;;;;;18.25;5.93;;;7.70;99.90;;;;;;5053301;28;20060;-69
2023/05/27 02:31:33;;;;;;;12.40;5.22;;;7.70;99.90;;;;;;5053885;28;20052;-70
2023/05/27 02:34:00;;;;;;;15.90;4.82;;;7.80;99.90;;;;;;5053805;28;20093;-68
2023/05/27 02:36:26;;;;;;;13.20;4.65;;;7.70;99.90;;;;;;5073781;28;20040;-68
2023/05/27 02:38:53;;;;;;;14.25;5.78;;;7.80;99.90;;;;;;5057810;28;20052;-69
2023/05/27 02:41:20;;;;;;;10.73;4.18;;;8.80;99.90;;;;;;5075690;28;20049;-69
2023/05/27 02:43:47;;;;;;;17.67;5.30;;;8.80;99.90;;;;;;5075261;28;20053;-69
2023/05/27 02:46:15;;;;;;;18.30;4.95;;;8.60;99.90;;;;;;5075876;28;20090;-69
2023/05/27 02:48:42;;;;;;;14.43;4.80;;;8.00;99.90;;;;;;5057120;28;20056;-69
2023/05/27 02:51:09;;;;;;;14.60;4.95;;;8.00;99.90;;;;;;5073654;28;20044;-69
2023/05/27 02:53:36;;;;;;;13.27;4.18;;;8.00;99.90;;;;;;5057291;28;20135;-69
2023/05/27 02:56:03;;;;;;;15.82;4.97;;;8.00;99.90;;;;;;5057096;28;20059;-68
2023/05/27 02:58:30;;;;;;;16.65;4.97;;;8.00;99.90;;;;;;5075228;28;20052;-70
2023/05/27 03:00:57;;;;;;;25.05;7.60;;;8.00;99.90;;;;;;5075405;28;20058;-68
2023/05/27 03:03:26;;;;;;;17.20;4.57;;;7.90;99.90;;;;;;5056486;28;20060;-68
2023/05/27 03:05:52;;;;;;;25.67;5.40;;;8.90;99.90;;;;;;5057322;28;20053;-68
2023/05/27 03:08:19;;;;;;;20.77;5.38;;;7.90;99.90;;;;;;5075044;28;20056;-69
2023/05/27 03:10:46;;;;;;;22.58;5.55;;;8.00;99.90;;;;;;5056445;28;20051;-68
2023/05/27 03:13:15;;;;;;;17.98;4.65;;;7.90;99.90;;;;;;5056774;28;20059;-68
2023/05/27 03:15:43;;;;;;;19.90;5.35;;;8.00;99.90;;;;;;5057300;28;20048;-68
2023/05/27 03:18:09;;;;;;;14.23;4.30;;;8.20;99.90;;;;;;5074544;28;20119;-69
2023/05/27 03:20:38;;;;;;;16.33;4.57;;;8.10;99.90;;;;;;5074770;28;20047;-71
2023/05/27 03:23:05;;;;;;;16.92;4.60;;;8.20;99.90;;;;;;5074625;28;20118;-69
2023/05/27 03:25:33;;;;;;;18.00;4.32;;;9.10;99.90;;;;;;5056414;28;20052;-69
2023/05/27 03:28:00;;;;;;;12.63;5.25;;;8.20;99.90;;;;;;5056893;28;20067;-69
2023/05/27 03:30:27;;;;;;;18.42;4.55;;;8.30;99.90;;;;;;5075006;28;20044;-73
2023/05/27 03:32:54;;;;;;;14.05;4.65;;;8.40;99.90;;;;;;5074266;28;20141;-70
2023/05/27 03:35:21;;;;;;;17.50;5.10;;;8.40;99.90;;;;;;5056863;28;20439;-69
2023/05/27 03:37:49;;;;;;;13.52;4.40;;;8.50;99.90;;;;;;5056268;28;20057;-70
2023/05/27 03:40:16;;;;;;;15.23;5.18;;;8.50;99.90;;;;;;5056465;28;20040;-71
2023/05/27 03:42:43;;;;;;;15.45;4.95;;;9.50;99.90;;;;;;5072680;28;20056;-67
2023/05/27 03:45:10;;;;;;;17.27;4.65;;;9.30;99.90;;;;;;5056341;28;20447;-70
2023/05/27 03:47:38;;;;;;;16.83;5.03;;;8.80;99.90;;;;;;5053672;28;20052;-68
2023/05/27 03:50:05;;;;;;;12.80;5.18;;;9.00;99.90;;;;;;5056486;28;20056;-69
2023/05/27 03:52:32;;;;;;;11.50;5.10;;;8.90;99.90;;;;;;5056449;28;20061;-68
2023/05/27 03:55:00;;;;;;;12.23;4.18;;;9.00;99.90;;;;;;5056322;28;20068;-68
2023/05/27 03:57:27;;;;;;;11.20;4.25;;;9.10;99.90;;;;;;5056305;28;20045;-68
2023/05/27 03:59:54;;;;;;;15.18;5.35;;;9.90;99.90;;;;;;5055582;28;20052;-68
2023/05/27 04:02:21;;;;;;;19.85;5.00;;;9.20;99.90;;;;;;5056764;28;20044;-68
2023/05/27 04:04:48;;;;;;;13.05;3.88;;;9.30;99.90;;;;;;5054123;28;20057;-68
2023/05/27 04:07:17;;;;;;;18.38;5.05;;;9.40;99.90;;;;;;5055474;28;20055;-67
2023/05/27 04:09:44;;;;;;;23.15;4.88;;;10.10;99.90;;;;;;5054153;28;20105;-67
2023/05/27 04:12:13;;;;;;;16.98;4.38;;;9.40;99.90;;;;;;5056198;28;20082;-67
2023/05/27 04:14:40;;;;;;;15.23;5.00;;;9.40;99.90;;;;;;5055572;28;20056;-68
2023/05/27 04:17:07;;;;;;;14.70;4.40;;;9.40;99.90;;;;;;5054168;28;20044;-68
2023/05/27 04:19:34;;;;;;;18.98;5.07;;;9.50;99.90;;;;;;5055838;28;20048;-68
2023/05/27 04:22:01;;;;;;;14.75;4.70;;;10.40;99.90;;;;;;5073221;28;20052;-68
2023/05/27 04:24:28;;;;;;;18.08;4.90;;;9.50;99.90;;;;;;5073943;28;20048;-67
2023/05/27 04:26:55;;;;;;;13.32;4.35;;;9.50;99.90;;;;;;5056021;28;20048;-67
2023/05/27 04:29:23;;;;;;;10.88;4.63;;;9.60;99.90;;;;;;5073466;28;20048;-69
2023/05/27 04:31:50;;;;;;;17.98;5.13;;;9.70;99.90;;;;;;5073835;28;20047;-68
2023/05/27 04:34:17;;;;;;;14.38;4.40;;;9.80;99.90;;;;;;5055122;28;20511;-67
2023/05/27 04:36:49;;;;;;;20.20;5.38;;;9.80;99.90;;;;;;5055714;28;20056;-67
2023/05/27 04:39:16;;;;;;;14.25;4.45;;;10.10;99.90;;;;;;5055493;28;20062;-70
2023/05/27 04:41:43;;;;;;;20.05;4.82;;;10.00;99.90;;;;;;5073033;28;20074;-71
2023/05/27 04:44:10;;;;;;;9.70;4.38;;;10.00;99.90;;;;;;5073247;28;20488;-71
2023/05/27 04:46:40;;;;;;;15.82;4.97;;;10.00;99.90;;;;;;5055671;28;20052;-69
2023/05/27 04:49:08;;;;;;;15.23;4.38;;;10.40;99.90;;;;;;5054885;28;20071;-69
2023/05/27 04:51:35;;;;;;;15.88;3.80;;;10.10;99.90;;;;;;5073369;28;20171;-68
2023/05/27 04:54:02;;;;;;;12.15;3.90;;;10.00;99.90;;;;;;5073528;28;20087;-69
2023/05/27 04:56:29;;;;;;;17.10;4.40;;;10.10;99.90;;;;;;5072644;28;20048;-69
2023/05/27 04:58:58;;;;;;;16.20;4.18;;;10.10;99.90;;;;;;5072319;28;20059;-69
2023/05/27 05:01:27;;;;;;;12.25;4.10;;;10.10;99.90;;;;;;5054983;28;20476;-68
2023/05/27 05:04:11;;;;;;;14.75;3.83;;;10.40;99.90;;;;;;5054397;28;20086;-67
2023/05/27 05:06:39;;;;;;;11.10;4.20;;;10.20;99.90;;;;;;5071212;28;20124;-68
2023/05/27 05:09:07;;;;;;;11.88;4.43;;;10.20;99.90;;;;;;5072697;28;20064;-68
2023/05/27 05:11:34;;;;;;;11.77;3.92;;;10.30;99.90;;;;;;5054607;28;20045;-67
2023/05/27 05:14:01;;;;;;;10.32;4.25;;;10.30;99.90;;;;;;5054906;28;20434;-69
2023/05/27 05:16:28;;;;;;;13.93;3.50;;;11.10;99.90;;;;;;5072356;28;20450;-70
2023/05/27 05:18:57;;;;;;;16.83;4.38;;;10.40;99.90;;;;;;5052765;28;20053;-70
2023/05/27 05:21:23;;;;;;;17.63;5.22;;;10.90;99.90;;;;;;5054316;28;21386;-72
2023/05/27 05:23:50;;;;;;;12.88;4.40;;;10.20;99.90;;;;;;5054272;28;20044;-71
2023/05/27 05:26:17;;;;;;;13.23;5.28;;;10.20;99.90;;;;;;5072729;28;21191;-71
2023/05/27 05:28:44;;;;;;;24.60;10.90;;;10.30;99.90;;;;;;5072861;28;20051;-68
2023/05/27 05:31:11;;;;;;;15.65;4.85;;;10.30;99.90;;;;;;5054006;28;20055;-69
2023/05/27 05:33:38;;;;;;;15.50;4.55;;;10.50;99.90;;;;;;5054467;28;20056;-69
2023/05/27 05:36:07;;;;;;;17.27;4.55;;;10.50;99.90;;;;;;5072576;28;20040;-68
2023/05/27 05:38:34;;;;;;;14.25;4.10;;;10.60;99.90;;;;;;5053971;28;20113;-69
2023/05/27 05:41:01;;;;;;;12.63;4.32;;;10.60;99.90;;;;;;5054273;28;20090;-69
2023/05/27 05:43:28;;;;;;;10.18;4.10;;;10.60;99.90;;;;;;5054418;28;20515;-68
2023/05/27 05:45:55;;;;;;;21.80;4.88;;;10.70;99.90;;;;;;5053840;28;20121;-69
2023/05/27 05:48:22;;;;;;;16.98;4.78;;;10.90;99.90;;;;;;5054369;28;20507;-71
2023/05/27 05:50:49;;;;;;;21.80;4.32;;;11.90;99.90;;;;;;5066352;28;20785;-70
2023/05/27 05:53:17;;;;;;;15.40;4.45;;;11.30;99.90;;;;;;5048894;28;20052;-70
2023/05/27 05:55:44;;;;;;;13.60;4.68;;;12.10;99.90;;;;;;5049570;28;20064;-69
2023/05/27 05:58:11;;;;;;;17.65;4.35;;;11.90;99.90;;;;;;5053180;28;20113;-68
2023/05/27 06:00:38;;;;;;;14.85;4.38;;;12.50;99.90;;;;;;5047495;28;20052;-68
2023/05/27 06:03:05;;;;;;;20.10;5.80;;;12.30;99.90;;;;;;5053363;28;20057;-68
2023/05/27 06:05:31;;;;;;;13.75;4.63;;;12.50;99.90;;;;;;5068070;28;20055;-70
2023/05/27 06:07:58;;;;;;;10.65;4.10;;;12.70;99.90;;;;;;5053438;28;20063;-69
2023/05/27 06:10:27;;;;;;;16.80;4.15;;;12.90;99.90;;;;;;5050902;28;20053;-69
2023/05/27 06:12:54;;;;;;;12.27;3.92;;;13.00;99.90;;;;;;5052991;28;20056;-69
2023/05/27 06:15:21;;;;;;;15.43;5.03;;;13.20;99.90;;;;;;5069925;28;20488;-69
2023/05/27 06:17:48;;;;;;;16.30;4.88;;;13.40;99.90;;;;;;5071283;28;20109;-70
2023/05/27 06:20:15;;;;;;;15.25;4.75;;;13.60;99.90;;;;;;5051475;28;20052;-71
2023/05/27 06:22:42;;;;;;;12.57;4.00;;;13.80;99.90;;;;;;5071466;28;20041;-69
2023/05/27 06:25:09;;;;;;;13.95;4.13;;;14.00;99.90;;;;;;5052053;28;20060;-69
2023/05/27 06:27:38;;;;;;;17.92;5.38;;;14.10;99.90;;;;;;5051059;28;20512;-69
2023/05/27 06:30:07;;;;;;;18.85;4.75;;;14.30;99.90;;;;;;5053046;28;20189;-69
2023/05/27 06:32:34;;;;;;;18.17;4.28;;;14.50;99.90;;;;;;5035269;28;20060;-70
2023/05/27 06:35:01;;;;;;;13.32;3.90;;;14.80;99.90;;;;;;5070537;28;20049;-69
2023/05/27 06:37:28;;;;;;;19.17;4.78;;;14.80;99.90;;;;;;5050186;28;20118;-70
2023/05/27 06:39:55;;;;;;;12.05;4.53;;;15.00;99.90;;;;;;5052374;28;20048;-70
2023/05/27 06:42:23;;;;;;;15.07;4.15;;;15.20;99.90;;;;;;5050972;28;20459;-70
2023/05/27 06:44:51;;;;;;;14.75;4.75;;;15.20;99.90;;;;;;5071074;28;20090;-70
2023/05/27 06:47:18;;;;;;;13.32;4.60;;;15.40;99.90;;;;;;5051364;28;20060;-71
2023/05/27 06:49:45;;;;;;;15.98;4.35;;;15.50;99.90;;;;;;5052155;28;20048;-71
2023/05/27 06:52:12;;;;;;;18.35;4.85;;;15.80;99.90;;;;;;5051524;28;20484;-71
2023/05/27 06:54:39;;;;;;;10.38;4.40;;;15.90;99.90;;;;;;5052933;28;20053;-69
2023/05/27 06:57:06;;;;;;;13.93;4.43;;;16.00;99.90;;;;;;5050508;28;20067;-70
2023/05/27 06:59:33;;;;;;;12.75;4.38;;;16.10;99.90;;;;;;5052732;28;20063;-71
2023/05/27 07:02:01;;;;;;;18.48;4.82;;;16.40;99.90;;;;;;5050339;28;20048;-71
2023/05/27 07:04:28;;;;;;;14.48;5.28;;;16.90;99.90;;;;;;5065719;28;20053;-71
2023/05/27 07:06:55;;;;;;;12.43;4.35;;;17.50;99.90;;;;;;5063730;28;20075;-71
2023/05/27 07:09:22;;;;;;;16.52;4.68;;;18.00;99.90;;;;;;5046758;28;20064;-71
2023/05/27 07:11:49;;;;;;;13.05;3.67;;;18.40;99.90;;;;;;5047781;28;20401;-70
2023/05/27 07:14:16;;;;;;;11.45;3.55;;;18.40;99.90;;;;;;5046107;28;20049;-71
2023/05/27 07:16:43;;;;;;;10.77;4.05;;;18.60;99.90;;;;;;5048928;28;20056;-71
2023/05/27 07:19:11;;;;;;;15.20;4.50;;;18.70;99.90;;;;;;5046354;28;20049;-71
2023/05/27 07:21:38;;;;;;;12.98;4.47;;;19.00;99.90;;;;;;5047688;28;20052;-71
2023/05/27 07:24:05;;;;;;;13.32;4.50;;;19.10;99.90;;;;;;5046397;28;20108;-72
2023/05/27 07:26:33;;;;;;;13.40;3.97;;;19.40;99.60;;;;;;5052990;28;20064;-71
2023/05/27 07:29:01;;;;;;;19.40;3.97;;;19.50;98.60;;;;;;5051536;28;20488;-71
2023/05/27 07:31:29;;;;;;;11.45;3.88;;;19.50;98.40;;;;;;5052587;28;20103;-71
2023/05/27 07:33:56;;;;;;;18.13;4.57;;;19.50;98.60;;;;;;5051923;28;20053;-71
2023/05/27 07:36:25;;;;;;;13.43;4.13;;;19.60;98.20;;;;;;5053322;28;20122;-72
2023/05/27 07:38:51;;;;;;;16.30;4.30;;;19.30;97.70;;;;;;5050995;28;20056;-72
2023/05/27 07:41:20;;;;;;;15.77;4.07;;;19.00;98.30;;;;;;5051987;28;20053;-71
2023/05/27 07:43:47;;;;;;;8.10;3.40;;;18.60;98.30;;;;;;5047975;28;20056;-71
2023/05/27 07:46:14;;;;;;;13.70;4.68;;;18.70;98.70;;;;;;5052413;28;20049;-71
2023/05/27 07:48:40;;;;;;;17.88;5.22;;;18.90;98.90;;;;;;5049448;28;20057;-70
2023/05/27 07:51:07;;;;;;;11.75;4.22;;;19.30;98.80;;;;;;5052760;28;20057;-71
2023/05/27 07:53:37;;;;;;;12.27;4.45;;;19.60;97.90;;;;;;5050773;28;20045;-71
2023/05/27 07:56:04;;;;;;;13.77;4.50;;;19.40;97.60;;;;;;5052886;28;20040;-71
2023/05/27 07:58:31;;;;;;;17.08;4.78;;;18.90;97.40;;;;;;5050392;28;20049;-71
2023/05/27 08:00:58;;;;;;;15.60;4.30;;;18.90;97.60;;;;;;5050951;28;20056;-71
2023/05/27 08:03:25;;;;;;;12.95;4.45;;;19.10;97.70;;;;;;5053404;28;20065;-70
2023/05/27 08:05:52;;;;;;;23.77;5.88;;;19.50;97.10;;;;;;5049735;28;20664;-71
2023/05/27 08:08:19;;;;;;;14.98;4.10;;;19.80;96.20;;;;;;5059302;28;20064;-71
2023/05/27 08:10:48;;;;;;;11.15;4.82;;;20.20;96.20;;;;;;5053584;28;20059;-71
2023/05/27 08:13:15;;;;;;;14.15;6.20;;;19.80;94.90;;;;;;5053022;28;20201;-71
2023/05/27 08:15:42;;;;;;;12.23;4.35;;;20.10;95.90;;;;;;5052835;28;20057;-71
2023/05/27 08:18:08;;;;;;;11.70;4.35;;;20.60;95.30;;;;;;5054764;28;20059;-72
2023/05/27 08:20:35;;;;;;;21.27;5.97;;;20.60;94.40;;;;;;5069624;28;20110;-69
2023/05/27 08:23:02;;;;;;;13.10;4.50;;;20.50;94.10;;;;;;5054821;28;20048;-71
2023/05/27 08:25:29;;;;;;;12.65;4.80;;;20.10;93.70;;;;;;5072070;28;20044;-71
2023/05/27 08:28:01;;;;;;;14.55;4.35;;;19.80;94.90;;;;;;5054395;28;20055;-70
2023/05/27 08:30:28;;;;;;;11.80;4.00;;;20.30;94.80;;;;;;5052041;28;20548;-71
2023/05/27 08:32:55;;;;;;;15.05;5.15;;;20.20;95.20;;;;;;5052841;28;20614;-71
2023/05/27 08:35:22;;;;;;;12.43;4.32;;;20.50;94.90;;;;;;5071109;28;20216;-70
2023/05/27 08:37:49;;;;;;;18.77;4.70;;;20.60;94.10;;;;;;5053525;28;20048;-70
2023/05/27 08:40:17;;;;;;;11.90;4.22;;;20.50;93.90;;;;;;5071701;28;20048;-71
2023/05/27 08:42:45;;;;;;;10.88;4.57;;;21.00;93.70;;;;;;5051540;28;20048;-71
2023/05/27 08:45:13;;;;;;;10.40;3.97;;;21.80;93.70;;;;;;5053881;28;20044;-70
2023/05/27 08:47:40;;;;;;;12.27;4.82;;;22.50;93.20;;;;;;5072339;28;20044;-70
2023/05/27 08:50:09;;;;;;;11.40;4.25;;;22.70;92.80;;;;;;5055369;28;20133;-70
2023/05/27 08:52:43;;;;;;;12.20;4.22;;;22.40;92.30;;;;;;5073111;28;20080;-71
2023/05/27 08:55:13;;;;;;;14.23;4.13;;;22.20;92.00;;;;;;5072796;28;20051;-72
2023/05/27 08:57:44;;;;;;;11.13;4.43;;;22.30;92.40;;;;;;5073246;28;20044;-71
2023/05/27 09:00:14;;;;;;;12.07;4.60;;;22.70;92.00;;;;;;5053522;28;20049;-71
2023/05/27 09:02:42;;;;;;;15.00;4.53;;;22.60;91.60;;;;;;5054471;28;20044;-71
2023/05/27 09:05:10;;;;;;;11.55;3.78;;;22.80;91.70;;;;;;5054935;28;20052;-71
2023/05/27 09:07:37;;;;;;;11.02;4.25;;;22.60;91.10;;;;;;5054865;28;20048;-71
2023/05/27 09:10:06;;;;;;;12.30;4.47;;;22.80;91.00;;;;;;5054438;28;20504;-71
2023/05/27 09:12:34;;;;;;;9.63;4.28;;;23.10;90.30;;;;;;5073100;28;20048;-71
2023/05/27 09:15:01;;;;;;;11.98;4.45;;;23.30;90.20;;;;;;5071025;28;20045;-71
2023/05/27 09:17:29;;;;;;;9.90;3.67;;;23.50;90.00;;;;;;5054468;28;20057;-72
2023/05/27 09:19:56;;;;;;;10.60;3.85;;;23.60;90.10;;;;;;5054916;28;20056;-70
2023/05/27 09:22:24;;;;;;;12.43;4.68;;;24.00;89.20;;;;;;5072760;28;20048;-71
2023/05/27 09:24:54;;;;;;;13.57;3.65;;;24.00;89.30;;;;;;5072137;28;20044;-70
2023/05/27 09:27:26;;;;;;;9.73;4.20;;;24.10;87.50;;;;;;5054906;28;20381;-71
2023/05/27 09:29:53;;;;;;;9.93;4.03;;;24.10;88.90;;;;;;5070475;28;20110;-71
2023/05/27 09:32:27;;;;;;;14.00;3.95;;;24.10;88.50;;;;;;5072471;28;20510;-71
2023/05/27 09:34:57;;;;;;;11.60;4.25;;;23.90;85.80;;;;;;5054545;28;20052;-71
2023/05/27 09:37:31;;;;;;;12.10;4.05;;;23.90;86.00;;;;;;5054134;28;20059;-70
2023/05/27 09:39:58;;;;;;;10.60;4.22;;;23.90;85.00;;;;;;5053520;28;20476;-71
2023/05/27 09:42:26;;;;;;;11.65;4.00;;;23.90;86.40;;;;;;5054644;28;20048;-71
2023/05/27 09:44:55;;;;;;;10.02;3.75;;;24.30;85.70;;;;;;5071035;28;20496;-71
2023/05/27 09:47:22;;;;;;;11.75;4.18;;;24.70;83.90;;;;;;5054381;28;20053;-71
2023/05/27 09:49:53;;;;;;;10.15;3.45;;;24.40;84.90;;;;;;5052532;28;20056;-72
2023/05/27 09:52:21;;;;;;;14.23;4.72;;;24.10;85.50;;;;;;5071599;28;20508;-71
2023/05/27 09:54:50;;;;;;;8.65;3.30;;;24.30;84.70;;;;;;5071903;28;20060;-72
2023/05/27 09:57:19;;;;;;;11.23;4.67;;;24.40;85.50;;;;;;5052071;28;20565;-72
2023/05/27 09:59:47;;;;;;;11.30;3.80;;;24.60;84.10;;;;;;5053443;28;20567;-71
2023/05/27 10:02:19;;;;;;;13.52;4.30;;;24.70;84.70;;;;;;5053862;28;20044;-71
2023/05/27 10:04:48;;;;;;;9.35;3.63;;;25.00;84.30;;;;;;5051670;28;20109;-71
2023/05/27 10:07:20;;;;;;;8.45;3.67;;;25.00;83.70;;;;;;5072278;28;20044;-71
2023/05/27 10:09:50;;;;;;;13.20;4.32;;;25.20;83.50;;;;;;5071681;28;20056;-71
2023/05/27 10:12:18;;;;;;;9.75;4.10;;;24.70;81.80;;;;;;5071837;28;20048;-72
2023/05/27 10:14:46;;;;;;;9.52;4.00;;;24.90;82.70;;;;;;5052848;28;20044;-71
2023/05/27 10:17:13;;;;;;;9.38;4.30;;;25.20;83.20;;;;;;5053798;28;20084;-71
2023/05/27 10:19:55;;;;;;;9.20;3.90;;;25.60;83.00;;;;;;5071444;28;20048;-71
2023/05/27 10:22:23;;;;;;;12.80;3.78;;;25.90;81.40;;;;;;5053233;28;20083;-70
2023/05/27 10:24:53;;;;;;;10.25;4.40;;;26.00;82.60;;;;;;5053750;28;20051;-70
2023/05/27 10:27:21;;;;;;;12.43;4.15;;;26.30;81.90;;;;;;5069384;28;20044;-71
2023/05/27 10:29:59;;;;;;;10.63;4.05;;;26.20;82.00;;;;;;5063304;28;20503;-71
2023/05/27 10:32:26;;;;;;;10.27;4.60;;;26.40;81.20;;;;;;5068754;28;20053;-71
2023/05/27 10:34:55;;;;;;;9.43;3.90;;;26.60;81.70;;;;;;5049854;28;20059;-71
2023/05/27 10:37:22;;;;;;;;;;;26.60;80.50;;;;;;5052154;28;20048;-71
2023/05/27 10:39:58;;;;;;;12.88;4.20;;;26.00;79.30;;;;;;5069252;28;20274;-71
2023/05/27 10:42:25;;;;;;;11.23;3.72;;;26.40;80.30;;;;;;5070882;28;20484;-71
2023/05/27 10:45:05;;;;;;;10.38;3.97;;;26.30;80.10;;;;;;5050874;28;20060;-70
2023/05/27 10:47:36;;;;;;;8.05;3.85;;;26.10;79.70;;;;;;5067318;28;20121;-70
2023/05/27 10:50:12;;;;;;;11.32;3.90;;;26.10;79.80;;;;;;5050744;28;20106;-70
2023/05/27 10:52:40;;;;;;;9.38;3.80;;;26.60;78.60;;;;;;5069470;28;20491;-71
2023/05/27 10:55:09;;;;;;;10.63;4.30;;;26.50;77.80;;;;;;5069766;28;20106;-70
2023/05/27 10:57:36;;;;;;;9.60;3.97;;;26.60;78.20;;;;;;5049184;28;20052;-71
2023/05/27 11:00:08;;;;;;;9.82;4.40;;;26.90;79.40;;;;;;5054225;28;20081;-71
2023/05/27 11:02:38;;;;;;;9.23;4.00;;;26.80;77.90;;;;;;5071343;28;20081;-71
2023/05/27 11:05:15;;;;;;;10.18;3.85;;;26.90;77.90;;;;;;5073773;28;20052;-71
2023/05/27 11:07:42;;;;;;;10.50;4.22;;;27.00;76.80;;;;;;5071026;28;20102;-71
2023/05/27 11:10:11;;;;;;;11.77;4.22;;;26.90;77.90;;;;;;5073087;28;20045;-71
2023/05/27 11:12:38;;;;;;;9.35;4.00;;;27.00;76.60;;;;;;5056498;28;20049;-71
2023/05/27 11:15:06;;;;;;;8.35;3.35;;;27.20;76.50;;;;;;5055166;28;20060;-71
2023/05/27 11:17:33;;;;;;;9.90;4.10;;;27.00;75.40;;;;;;5053566;28;20044;-71
2023/05/27 11:20:03;;;;;;;8.23;3.33;;;27.10;75.70;;;;;;5070642;28;20136;-73
2023/05/27 11:22:30;;;;;;;10.05;4.88;;;27.10;75.40;;;;;;5054998;28;20048;-71
2023/05/27 11:24:59;;;;;;;8.85;4.20;;;26.80;75.40;;;;;;5053364;28;20067;-71
2023/05/27 11:27:35;;;;;;;15.25;4.60;;;27.00;76.60;;;;;;5055210;28;20052;-72
2023/05/27 11:30:09;;;;;;;9.57;3.53;;;27.10;74.20;;;;;;5052376;28;20139;-71
2023/05/27 11:32:36;;;;;;;9.57;4.40;;;26.80;75.40;;;;;;5072619;28;20123;-71
2023/05/27 11:35:05;;;;;;;12.35;4.55;;;26.90;74.60;;;;;;5074943;28;20488;-70
2023/05/27 11:37:33;;;;;;;10.00;4.10;;;26.60;75.50;;;;;;5056397;28;20424;-71
2023/05/27 11:40:00;;;;;;;12.13;4.38;;;26.20;76.50;;;;;;5056000;28;20048;-72
2023/05/27 11:42:30;;;;;;;9.48;4.05;;;26.50;76.90;;;;;;5056644;28;20102;-71
2023/05/27 11:44:59;;;;;;;9.43;3.95;;;27.20;75.70;;;;;;5056283;28;20048;-71
2023/05/27 11:47:26;;;;;;;8.60;4.23;;;27.50;74.40;;;;;;5074771;28;20053;-71
2023/05/27 11:49:53;;;;;;;9.93;4.22;;;27.40;73.90;;;;;;5074417;28;20072;-71
2023/05/27 11:52:20;;;;;;;12.43;3.90;;;27.70;73.70;;;;;;5056264;28;20040;-71
2023/05/27 11:54:51;;;;;;;9.95;4.30;;;27.10;73.70;;;;;;5054668;28;20053;-71
2023/05/27 11:57:18;;;;;;;11.55;4.03;;;27.10;73.80;;;;;;5055259;28;20193;-71
2023/05/27 11:59:46;;;;;;;8.85;4.25;;;26.90;74.90;;;;;;5056264;28;20052;-71
2023/05/27 12:02:13;;;;;;;10.80;4.47;;;26.80;75.70;;;;;;5072248;28;20052;-71
2023/05/27 12:04:40;;;;;;;9.93;4.57;;;27.10;76.40;;;;;;5055802;28;20121;-71
2023/05/27 12:07:07;;;;;;;8.60;3.70;;;27.10;75.60;;;;;;5074391;28;20051;-72
2023/05/27 12:09:34;;;;;;;10.68;4.18;;;27.40;74.30;;;;;;5073227;28;20060;-72
2023/05/27 12:12:01;;;;;;;9.57;4.53;;;27.60;73.60;;;;;;5055672;28;20103;-71
2023/05/27 12:14:28;;;;;;;10.15;4.68;;;27.60;75.30;;;;;;5056266;28;20054;-72
2023/05/27 12:16:56;;;;;;;12.43;4.22;;;27.60;75.40;;;;;;5055946;28;20048;-71
2023/05/27 12:19:23;;;;;;;10.90;4.30;;;27.50;74.00;;;;;;5053856;28;20114;-71
2023/05/27 12:21:50;;;;;;;8.63;4.10;;;27.20;73.70;;;;;;5073989;28;20063;-71
2023/05/27 12:24:19;;;;;;;10.23;4.38;;;27.00;72.80;;;;;;5056014;28;20059;-71
2023/05/27 12:26:46;;;;;;;8.97;4.10;;;27.20;73.50;;;;;;5055460;28;20135;-71
2023/05/27 12:29:13;;;;;;;11.70;4.53;;;27.40;74.20;;;;;;5073862;28;20040;-71
2023/05/27 12:31:40;;;;;;;10.10;4.55;;;27.20;74.20;;;;;;5055943;28;20063;-72
2023/05/27 12:34:08;;;;;;;8.30;3.35;;;27.60;73.90;;;;;;5055310;28;20044;-71
2023/05/27 12:36:36;;;;;;;10.50;4.38;;;27.80;73.80;;;;;;5073848;28;20058;-71
2023/05/27 12:39:04;;;;;;;11.35;3.75;;;28.00;73.50;;;;;;5055511;28;20093;-72
2023/05/27 12:41:31;;;;;;;7.80;4.03;;;28.30;72.90;;;;;;5055225;28;20056;-71
2023/05/27 12:43:59;;;;;;;11.73;4.13;;;28.30;72.80;;;;;;5053472;28;20131;-71
2023/05/27 12:46:26;;;;;;;12.10;4.22;;;28.10;74.20;;;;;;5055523;28;20442;-71